Palermo, Italy
Current Conditions -  °F | °C
As of 6:50 AM on Thursday 23 Oct 2014 (Local Time) from LICJ Reporting Station
Scattered Clouds Scattered Clouds  
Wind Chill: 66°   Ceiling: Unl
Heat Index: 66°   Visibility: 6mi
Dew Point: 43°   Wind: 18mph
Humidity: 43%   Direction: 340°NNW
Pressure: 29.85"   Gusts: NA
Location:  38.12°N, 13.36°E
Report Text: LICJ 230450Z 34016KT 9000 SCT020 19/06 Q1011
Loading
Personal Weather Stations






























Interactive Weather Map
Tropical Storm Tracking
New forecast layout! Learn more

10-Day Weather Forecast

Advertisements
Track Severe Weather on mobile